VIJP/JAI METAR and TAF weather

Enter ICAO airport designator
Station Type Date Time Source
VIJP METAR 2019/06/17 12:30 UTC NOAA

VIJP 171230Z 11008KT 3000 DZ SCT030 SCT035 FEW040CB 28/24 Q1001 NOSIG


Station Type Date Time Source
VIJP Decoded METAR 2019/06/17 12:30 UTC NOAA

Jaipur / Sanganer, India (VIJP) 26-49N 075-48E 390M
Jun 17, 2019 - 08:30 AM EDT / 2019.06.17 1230 UTC
Wind: from the ESE (110 degrees) at 9 MPH (8 KT):0
Visibility: 1 mile(s):0
Sky conditions: partly cloudy
Weather: drizzle; Cumulonimbus clouds observed
Temperature: 82 F (28 C)
Dew Point: 75 F (24 C)
Relative Humidity: 78%
Pressure (altimeter): 29.56 in. Hg (1001 hPa)
ob: VIJP 171230Z 11008KT 3000 DZ SCT030 SCT035 FEW040CB 28/24 Q1001 NOSIG
cycle: 12

Station Type Date Time Source
VIJP TAF 2019/06/17 12:00 UTC NOAA

TAF VIJP 171100Z 1712/1818 28007KT 3000 HZ SCT035 SCT100
TEMPO 1712/1717 29010G20KT 1000 DS TSRA SCT030 FEW035CB BKN090
BECMG 1714/1716 VRB03KT 2500 HZ
BECMG 1804/1806 24006KT 4000 HZ SCT030 BKN090
TEMPO 1808/1814 23010G20KT 0800 DS TSRA SCT030 FEW035CB BKN090
BECMG 1813/1816 VRB03KT 3000 HZ

Example: see airport list